Date,TemperatureHighF,TemperatureAvgF,TemperatureLowF,DewpointHighF,DewpointAvgF,DewpointLowF,HumidityHigh,HumidityAvg,HumidityLow,PressureMaxIn,PressureMinIn,WindSpeedMaxMPH,WindSpeedAvgMPH,GustSpeedMaxMPH,PrecipitationSumIn
2013-3-1,84,68,50,28,16,4,30,16,6,0.00,40.00,10,3,17,0.00
2013-3-2,91,68,46,37,25,15,47,23,7,0.00,40.00,3,1,9,0.00
2013-3-3,81,65,48,47,31,22,53,31,14,0.00,40.00,10,2,12,0.00
2013-3-4,82,68,58,42,36,24,48,32,17,0.00,40.00,19,7,32,0.00
2013-3-5,81,66,50,48,39,30,64,41,19,0.00,40.00,6,3,13,0.00
2013-3-6,83,64,51,48,37,16,67,41,8,0.00,40.00,12,5,20,0.00
2013-3-7,77,64,51,43,37,30,69,39,20,0.00,40.00,14,7,21,0.00
2013-3-8,66,57,51,52,39,30,86,55,26,0.00,40.00,16,7,27,0.10
2013-3-9,70,59,46,41,35,30,72,43,23,0.00,40.00,14,7,22,0.06
2013-3-10,78,63,48,43,29,15,66,34,10,0.00,40.00,17,4,28,0.00
2013-3-11,86,66,48,34,24,10,44,25,7,0.00,40.00,6,2,13,0.00
2013-3-12,92,69,50,33,26,11,48,25,6,0.00,40.00,8,2,13,0.00
2013-3-13,96,72,55,34,26,15,34,21,6,0.00,40.00,9,2,17,0.00
2013-3-14,99,80,61,38,29,14,30,18,7,0.00,40.00,8,2,14,0.00
2013-3-15,98,76,57,41,34,25,48,25,9,0.00,40.00,7,2,11,0.00
2013-3-16,95,73,56,44,34,16,53,30,6,0.00,40.00,8,2,15,0.00
2013-3-17,93,70,52,49,38,19,70,37,7,0.00,40.00,7,2,15,0.00
2013-3-18,87,71,58,50,41,33,56,37,15,0.00,40.00,7,4,13,0.00
2013-3-19,92,70,55,48,40,24,64,39,9,0.00,40.00,6,1,13,0.00
2013-3-20,91,75,58,47,37,22,57,31,11,0.00,40.00,13,4,22,0.00
2013-3-21,89,75,64,50,34,23,39,24,12,0.00,40.00,12,4,19,0.00
2013-3-22,88,72,57,44,29,11,51,25,6,0.00,40.00,10,5,19,0.00
2013-3-23,83,68,53,39,12,-8,50,19,3,0.00,40.00,19,5,32,0.00
2013-3-24,86,66,52,15,5,-12,17,10,3,0.00,40.00,8,1,13,0.00
2013-3-25,91,71,50,24,14,2,23,12,4,0.00,40.00,5,2,11,0.00
2013-3-26,90,72,57,47,26,14,38,20,9,0.00,40.00,10,3,14,0.00
2013-3-27,90,75,59,29,21,14,23,14,8,0.00,40.00,7,4,17,0.00
2013-3-28,89,82,73,42,33,25,33,18,11,0.00,40.00,6,3,11,0.00
2013-3-29,89,75,58,50,39,30,66,31,13,0.00,40.00,7,3,11,0.00
2013-3-30,94,81,68,43,30,-100,32,19,9,0.00,40.00,8,3,14,0.00
2013-3-31,88,75,59,43,37,25,44,27,13,0.00,40.00,15,9,24,0.00